Samarkand, Uzbekistan
Current Conditions -  °F | °C
As of 10:30 PM on Friday 31 Oct 2014 (Local Time) from UTSS Reporting Station
Clear Clear  
Wind Chill: 39°   Ceiling: Unl
Heat Index: 43°   Visibility: 6mi
Dew Point: 36°   Wind: 7mph
Humidity: 76%   Direction: 120°ESE
Pressure: 30.12"   Gusts: NA
Location:  39.66°N, 66.95°E
Report Text: UTSS 311730Z 12003MPS 9999 NSC 06/02 Q1020 R88/CLRD70 NOSIG
Loading
Personal Weather Stations






























Interactive Weather Map
Tropical Storm Tracking
New forecast layout! Learn more

10-Day Weather Forecast

Advertisements
Track Severe Weather on mobile